createdAt,value
2022-10-13T00:02:32.413Z,16.67
2022-10-13T00:07:33.640Z,18.50
2022-10-13T00:12:36.148Z,16.52
2022-10-13T00:17:37.809Z,16.70
2022-10-13T00:22:39.106Z,16.88
2022-10-13T00:27:40.394Z,15.93
2022-10-13T00:32:41.712Z,18.02
2022-10-13T00:37:42.964Z,17.10
2022-10-13T00:42:44.220Z,16.58
2022-10-13T00:47:49.871Z,17.33
2022-10-13T00:52:53.047Z,15.32
2022-10-13T00:57:55.994Z,14.50
2022-10-13T01:02:57.474Z,17.38
2022-10-13T01:07:59.556Z,18.65
2022-10-13T01:13:09.915Z,14.68
2022-10-13T01:18:34.702Z,14.27
2022-10-13T01:23:56.399Z,15.80
2022-10-13T01:29:37.008Z,17.50
2022-10-13T01:34:53.336Z,17.00
2022-10-13T01:40:17.913Z,16.42
2022-10-13T01:45:23.849Z,15.82
2022-10-13T01:50:26.418Z,14.85
2022-10-13T01:55:29.579Z,15.93
2022-10-13T02:00:37.484Z,15.68
2022-10-13T02:05:49.387Z,15.55
2022-10-13T02:10:58.729Z,13.90
2022-10-13T02:16:01.348Z,15.02
2022-10-13T02:21:04.008Z,17.63
2022-10-13T02:26:05.551Z,17.20
2022-10-13T02:31:08.365Z,13.80
2022-10-13T02:36:09.794Z,14.60
2022-10-13T02:41:11.938Z,14.95
2022-10-13T02:46:13.205Z,15.75
2022-10-13T02:51:14.476Z,15.15
2022-10-13T02:56:15.938Z,15.95
2022-10-13T03:01:17.261Z,17.10
2022-10-13T03:06:18.666Z,17.08
2022-10-13T03:11:19.924Z,16.42
2022-10-13T03:16:21.264Z,15.02
2022-10-13T03:21:23.297Z,15.43
2022-10-13T03:26:24.669Z,13.68
2022-10-13T03:31:26.140Z,13.32
2022-10-13T03:36:27.400Z,13.45
2022-10-13T03:41:28.673Z,13.82
2022-10-13T03:46:30.498Z,17.38
2022-10-13T03:51:31.900Z,15.07
2022-10-13T03:56:33.261Z,15.30
2022-10-13T04:01:34.600Z,14.55
2022-10-13T04:06:35.937Z,13.70
2022-10-13T04:11:37.340Z,14.25
2022-10-13T04:16:40.312Z,14.02
2022-10-13T04:21:42.952Z,15.38
2022-10-13T04:26:45.095Z,13.13
2022-10-13T04:31:46.387Z,13.23
2022-10-13T04:36:51.164Z,14.27
2022-10-13T04:41:52.406Z,14.02
2022-10-13T04:46:53.696Z,18.10
2022-10-13T04:51:54.964Z,16.48
2022-10-13T04:56:56.213Z,14.85
2022-10-13T05:01:57.482Z,15.93
2022-10-13T05:07:16.872Z,15.63
2022-10-13T05:12:19.480Z,16.05
2022-10-13T05:17:20.917Z,15.52
2022-10-13T05:22:22.596Z,13.18
2022-10-13T05:27:24.090Z,13.63
2022-10-13T05:32:25.374Z,12.30
2022-10-13T05:37:26.716Z,13.50
2022-10-13T05:42:29.961Z,13.43
2022-10-13T05:47:31.250Z,14.30
2022-10-13T05:52:33.513Z,13.50
2022-10-13T05:57:40.995Z,16.35
2022-10-13T06:03:18.062Z,14.98
2022-10-13T06:08:19.378Z,18.95
2022-10-13T06:13:20.714Z,16.98
2022-10-13T06:18:22.228Z,16.67
2022-10-13T06:23:24.047Z,19.05
2022-10-13T06:28:27.123Z,17.85
2022-10-13T06:33:28.406Z,16.83
2022-10-13T06:38:29.936Z,17.00
2022-10-13T06:43:39.699Z,19.42
2022-10-13T06:48:41.528Z,18.88
2022-10-13T06:53:42.926Z,16.70
2022-10-13T06:58:44.196Z,17.98
2022-10-13T07:03:50.598Z,18.05
2022-10-13T07:08:51.937Z,16.90
2022-10-13T07:13:54.128Z,17.23
2022-10-13T07:18:55.392Z,20.80
2022-10-13T07:23:56.738Z,19.85
2022-10-13T07:28:58.206Z,21.98
2022-10-13T07:34:00.028Z,22.05
2022-10-13T07:39:03.070Z,20.05
2022-10-13T07:44:04.626Z,18.83
2022-10-13T07:49:05.929Z,17.58
2022-10-13T07:54:07.214Z,17.75
2022-10-13T07:59:08.901Z,18.05
2022-10-13T08:04:10.250Z,18.60
2022-10-13T08:09:11.684Z,19.95
2022-10-13T08:14:13.329Z,21.88
2022-10-13T08:19:15.941Z,26.23
2022-10-13T08:24:18.081Z,23.08
2022-10-13T08:29:22.403Z,24.02
2022-10-13T08:34:25.719Z,20.88
2022-10-13T08:39:27.032Z,22.52
2022-10-13T08:50:13.215Z,21.40
2022-10-13T08:55:26.867Z,21.55
2022-10-13T09:00:29.465Z,20.60
2022-10-13T09:05:45.301Z,21.17
2022-10-13T09:10:49.138Z,26.02
2022-10-13T09:15:50.492Z,22.08
2022-10-13T09:21:08.392Z,29.45
2022-10-13T09:26:21.195Z,28.27
2022-10-13T09:31:28.852Z,27.55
2022-10-13T09:36:31.168Z,31.60
2022-10-13T09:41:33.626Z,32.67
2022-10-13T09:46:48.138Z,29.48
2022-10-13T09:57:05.760Z,27.77
2022-10-13T10:02:37.594Z,29.45
2022-10-13T10:07:38.862Z,29.88
2022-10-13T10:12:41.957Z,28.80
2022-10-13T10:17:51.923Z,29.25
2022-10-13T10:23:06.509Z,27.42
2022-10-13T10:28:07.766Z,28.23
2022-10-13T10:33:19.162Z,25.88
2022-10-13T10:38:47.436Z,24.92
2022-10-13T10:44:21.279Z,29.35
2022-10-13T10:49:30.944Z,28.43
2022-10-13T10:54:49.517Z,23.70
2022-10-13T10:59:59.359Z,23.77
2022-10-13T11:05:05.290Z,20.98
2022-10-13T11:10:13.961Z,23.60
2022-10-13T11:15:21.346Z,24.33
2022-10-13T11:20:24.920Z,21.40
2022-10-13T11:25:47.171Z,21.92
2022-10-13T11:30:55.588Z,22.30
2022-10-13T11:35:57.096Z,21.45
2022-10-13T11:41:21.566Z,21.65
2022-10-13T11:46:34.992Z,21.20
2022-10-13T11:51:48.276Z,19.63
2022-10-13T11:56:53.254Z,17.73
2022-10-13T12:01:59.098Z,21.73
2022-10-13T12:07:03.301Z,18.88
2022-10-13T12:12:13.992Z,17.67
2022-10-13T12:17:43.979Z,17.92
2022-10-13T12:22:49.377Z,17.08
2022-10-13T12:27:57.764Z,13.93
2022-10-13T12:33:00.933Z,14.93
2022-10-13T12:38:07.353Z,12.70
2022-10-13T12:43:16.727Z,13.80
2022-10-13T12:48:37.263Z,18.05
2022-10-13T12:53:39.279Z,15.90
2022-10-13T12:58:43.522Z,16.58
2022-10-13T13:03:44.799Z,15.77
2022-10-13T13:08:46.245Z,16.55
2022-10-13T13:13:47.766Z,15.30
2022-10-13T13:18:50.632Z,17.85
2022-10-13T13:23:54.002Z,15.68
2022-10-13T13:28:56.355Z,15.43
2022-10-13T13:33:57.779Z,15.27
2022-10-13T13:38:59.170Z,15.77
2022-10-13T13:44:01.007Z,15.57
2022-10-13T13:49:02.772Z,15.65
2022-10-13T13:54:04.881Z,15.07
2022-10-13T13:59:06.230Z,18.17
2022-10-13T14:04:07.618Z,17.20
2022-10-13T14:09:08.990Z,14.00
2022-10-13T14:14:10.388Z,17.00
2022-10-13T14:19:11.707Z,18.52
2022-10-13T14:24:13.361Z,14.75
2022-10-13T14:29:14.765Z,20.92
2022-10-13T14:34:16.133Z,16.02
2022-10-13T14:39:17.435Z,14.68
2022-10-13T14:44:18.833Z,17.83
2022-10-13T14:49:20.204Z,15.55
2022-10-13T14:54:21.480Z,17.95
2022-10-13T14:59:22.725Z,14.85
2022-10-13T15:04:24.136Z,15.25
2022-10-13T15:09:33.579Z,16.25
2022-10-13T15:14:46.658Z,15.18
2022-10-13T15:19:47.932Z,16.60
2022-10-13T15:24:49.402Z,17.95
2022-10-13T15:29:50.695Z,14.55
2022-10-13T15:34:52.051Z,16.58
2022-10-13T15:39:57.359Z,15.82
2022-10-13T15:45:14.517Z,14.48
2022-10-13T15:50:15.947Z,14.43
2022-10-13T15:55:17.497Z,16.52
2022-10-13T16:00:19.000Z,16.02
2022-10-13T16:05:20.429Z,16.00
2022-10-13T16:10:22.009Z,16.65
2022-10-13T16:15:23.303Z,17.23
2022-10-13T16:20:24.613Z,18.25
2022-10-13T16:25:26.031Z,20.50
2022-10-13T16:30:27.785Z,19.33
2022-10-13T16:35:29.061Z,18.45
2022-10-13T16:40:30.873Z,20.23
2022-10-13T16:45:55.171Z,23.30
2022-10-13T16:50:53.864Z,23.23
2022-10-13T16:55:55.127Z,28.50
2022-10-13T17:01:10.898Z,26.98
2022-10-13T17:06:13.993Z,22.33
2022-10-13T17:11:18.568Z,23.50
2022-10-13T17:16:20.098Z,23.73
2022-10-13T17:21:22.066Z,25.23
2022-10-13T17:26:23.684Z,25.55
2022-10-13T17:31:25.068Z,27.35
2022-10-13T17:36:28.951Z,26.23
2022-10-13T17:41:30.191Z,24.47
2022-10-13T17:46:38.000Z,24.05
2022-10-13T17:51:41.542Z,26.25
2022-10-13T17:56:43.513Z,28.52
2022-10-13T18:01:45.222Z,28.75
2022-10-13T18:06:47.017Z,26.13
2022-10-13T18:11:50.978Z,23.17
2022-10-13T18:16:53.130Z,25.42
2022-10-13T18:21:54.412Z,22.85
2022-10-13T18:26:55.646Z,22.05
2022-10-13T18:31:56.888Z,25.10
2022-10-13T18:36:58.338Z,22.33
2022-10-13T18:41:59.913Z,23.52
2022-10-13T18:47:01.515Z,23.83
2022-10-13T18:52:02.876Z,25.45
2022-10-13T18:57:04.163Z,24.50
2022-10-13T19:02:05.453Z,24.50
2022-10-13T19:07:06.701Z,25.10
2022-10-13T19:12:08.176Z,24.65
2022-10-13T19:17:09.409Z,26.17
2022-10-13T19:22:10.778Z,22.42
2022-10-13T19:27:12.037Z,25.20
2022-10-13T19:32:13.284Z,26.42
2022-10-13T19:37:16.269Z,28.08
2022-10-13T19:42:17.651Z,24.30
2022-10-13T19:47:19.416Z,30.45
2022-10-13T19:52:21.002Z,27.50
2022-10-13T19:57:22.678Z,22.75
2022-10-13T20:02:24.229Z,23.90
2022-10-13T20:07:25.506Z,21.33
2022-10-13T20:12:26.756Z,18.30
2022-10-13T20:17:28.115Z,18.08
2022-10-13T20:22:29.701Z,18.05
2022-10-13T20:27:30.988Z,18.48
2022-10-13T20:32:32.521Z,19.23
2022-10-13T20:37:33.970Z,18.52
2022-10-13T20:42:35.247Z,19.42
2022-10-13T20:47:36.483Z,21.75
2022-10-13T20:52:37.867Z,16.67
2022-10-13T20:57:39.125Z,17.00
2022-10-13T21:02:40.455Z,17.85
2022-10-13T21:07:42.072Z,15.27
2022-10-13T21:12:43.345Z,14.77
2022-10-13T21:17:44.671Z,14.10
2022-10-13T21:22:47.138Z,15.00
2022-10-13T21:27:48.412Z,13.73
2022-10-13T21:32:49.715Z,13.77
2022-10-13T21:37:51.027Z,13.27
2022-10-13T21:42:52.304Z,14.10
2022-10-13T21:47:53.616Z,14.38
2022-10-13T21:52:54.918Z,14.35
2022-10-13T21:57:58.823Z,13.77
2022-10-13T22:03:02.964Z,13.40
2022-10-13T22:08:04.410Z,14.02
2022-10-13T22:13:05.736Z,15.57
2022-10-13T22:18:07.045Z,17.15
2022-10-13T22:23:08.359Z,15.48
2022-10-13T22:28:09.612Z,16.63
2022-10-13T22:33:11.007Z,17.08
2022-10-13T22:38:14.043Z,15.70
2022-10-13T22:43:15.314Z,16.42
2022-10-13T22:48:16.806Z,15.60
2022-10-13T22:53:18.077Z,16.55
2022-10-13T22:58:19.332Z,17.73
2022-10-13T23:03:20.647Z,16.42
2022-10-13T23:08:22.096Z,16.70
2022-10-13T23:13:24.003Z,18.30
2022-10-13T23:18:25.296Z,18.67
2022-10-13T23:23:27.075Z,18.60
2022-10-13T23:28:28.572Z,18.98
2022-10-13T23:33:30.774Z,19.75
2022-10-13T23:38:32.673Z,18.77
2022-10-13T23:43:34.049Z,20.42
2022-10-13T23:48:35.335Z,17.67
2022-10-13T23:53:38.510Z,20.05
2022-10-13T23:58:42.027Z,18.95
